Terminal Aerodrome Forecast
Issued by NWS Shreveport, LA

Home | Current Version | Previous Version | Text Only | Print | Product List | Glossary On
Versions: 1 2 3 4 5 6 7 8 9 10 11 12 13 14 15 16 17
000
FTUS44 KSHV 292320
TAFELD
TAF
KELD 292320Z 3000/3024 VRB03KT P6SM VCTS FEW050CB SCT150 SCT250
      TEMPO 3008/3012 1SM BR
     FM301200 00000KT 4SM BR SCT150
     FM301400 14004KT P6SM SCT060 SCT180=

USA.gov is the U.S. government's official web portal to all federal, state and local government web resources and services.